Time;durP1;ratioP1;P1;durP2;ratioP2;P2;SDS_P1;SDS_P2;PMS_P1;PMS_P2;Temp;Humidity;BMP_temperature;BMP_pressure;BME280_temperature;BME280_humidity;BME280_pressure;Samples;Min_cycle;Max_cycle;Signal;HPM_P1;HPM_P2
2022/08/16 00:01:52;;;;;;;8.88;6.55;;;;;;;22.17;62.57;100488.84;5116517;28;20106;-65
2022/08/16 00:04:18;;;;;;;11.48;7.25;;;;;;;22.05;62.94;100493.84;5116440;28;20256;-66
2022/08/16 00:06:43;;;;;;;13.93;7.43;;;;;;;21.93;63.10;100492.56;5116445;28;20095;-66
2022/08/16 00:09:09;;;;;;;11.02;7.15;;;;;;;21.73;63.92;100496.09;5116423;28;20038;-66
2022/08/16 00:11:36;;;;;;;14.48;7.88;;;;;;;21.61;64.39;100492.06;5098166;28;20080;-66
2022/08/16 00:14:03;;;;;;;14.07;7.68;;;;;;;21.46;64.86;100495.38;5116171;28;20063;-66
2022/08/16 00:16:30;;;;;;;13.20;7.38;;;;;;;21.56;64.82;100502.13;5116175;28;20081;-64
2022/08/16 00:18:56;;;;;;;10.07;7.38;;;;;;;21.63;64.55;100502.78;5116186;28;20060;-66
2022/08/16 00:21:22;;;;;;;9.38;7.47;;;;;;;21.64;64.16;100493.78;5115917;28;20111;-64
2022/08/16 00:23:47;;;;;;;11.95;7.35;;;;;;;21.69;64.17;100498.00;5116251;28;20102;-66
2022/08/16 00:26:13;;;;;;;10.45;7.22;;;;;;;21.73;64.03;100496.94;5116065;28;20099;-65
2022/08/16 00:28:38;;;;;;;9.23;7.43;;;;;;;21.80;63.75;100496.69;5116181;28;20031;-67
2022/08/16 00:31:04;;;;;;;11.20;7.13;;;;;;;21.77;63.85;100505.78;5115931;28;20038;-67
2022/08/16 00:33:29;;;;;;;10.32;7.00;;;;;;;21.68;63.92;100515.09;5115888;28;20027;-66
2022/08/16 00:35:54;;;;;;;12.15;7.40;;;;;;;21.49;64.60;100514.06;5115761;28;20023;-66
2022/08/16 00:38:20;;;;;;;11.50;7.50;;;;;;;21.34;65.12;100515.56;5115929;28;20066;-65
2022/08/16 00:40:51;;;;;;;15.75;7.97;;;;;;;21.35;65.19;100511.06;5115871;28;20028;-66
2022/08/16 00:43:22;;;;;;;9.70;7.90;;;;;;;21.19;66.11;100508.91;5115656;28;20074;-65
2022/08/16 00:45:48;;;;;;;13.97;7.87;;;;;;;21.20;65.82;100513.38;5115904;28;20174;-65
2022/08/16 00:48:14;;;;;;;14.15;7.63;;;;;;;21.21;65.53;100509.75;5115451;28;20063;-67
2022/08/16 00:50:41;;;;;;;10.25;7.75;;;;;;;21.29;65.25;100520.22;5115669;28;20023;-67
2022/08/16 00:53:09;;;;;;;10.57;7.50;;;;;;;21.24;65.34;100515.00;5115239;28;20031;-67
2022/08/16 00:55:41;;;;;;;9.68;7.68;;;;;;;21.15;65.54;100520.72;5115569;28;20023;-66
2022/08/16 00:58:09;;;;;;;13.48;7.68;;;;;;;21.05;66.04;100523.81;5115045;28;20072;-66
2022/08/16 01:00:35;;;;;;;10.85;7.50;;;;;;;21.09;65.77;100518.28;5115219;28;20024;-66
2022/08/16 01:03:07;;;;;;;9.98;7.63;;;;;;;21.09;65.70;100520.09;5115528;28;20032;-64
2022/08/16 01:05:33;;;;;;;11.45;7.10;;;;;;;21.16;65.27;100510.88;5115284;28;20024;-65
2022/08/16 01:08:01;;;;;;;9.20;7.53;;;;;;;21.09;65.29;100520.97;5115309;28;20389;-66
2022/08/16 01:10:29;;;;;;;14.15;7.82;;;;;;;21.08;65.84;100523.72;5115186;28;20039;-66
2022/08/16 01:12:54;;;;;;;11.18;7.32;;;;;;;21.11;65.44;100520.88;5115075;28;20028;-67
2022/08/16 01:15:21;;;;;;;8.75;7.07;;;;;;;21.08;65.67;100519.22;5115061;28;20366;-65
2022/08/16 01:17:46;;;;;;;9.70;7.55;;;;;;;20.95;66.08;100520.63;5115144;28;20027;-65
2022/08/16 01:20:17;;;;;;;10.82;7.50;;;;;;;20.81;66.57;100517.53;5115236;28;20024;-66
2022/08/16 01:23:03;;;;;;;12.85;7.65;;;;;;;20.73;65.99;100509.78;5114970;28;20053;-66
2022/08/16 01:25:36;;;;;;;10.77;8.32;;;;;;;20.59;66.81;100517.44;5115030;28;20027;-65
2022/08/16 01:28:05;;;;;;;12.85;7.78;;;;;;;20.58;67.06;100513.03;5114848;28;20051;-67
2022/08/16 01:30:35;;;;;;;11.10;8.15;;;;;;;20.52;67.51;100513.25;5115014;28;20416;-66
2022/08/16 01:33:04;;;;;;;9.68;7.88;;;;;;;20.43;67.82;100517.09;5114741;28;20413;-66
2022/08/16 01:35:39;;;;;;;9.52;8.02;;;;;;;20.43;67.48;100515.28;5114713;28;20073;-68
2022/08/16 01:38:31;;;;;;;8.80;7.60;;;;;;;20.40;67.31;100507.34;5114600;28;20500;-64
2022/08/16 01:41:04;;;;;;;14.38;7.97;;;;;;;20.33;68.10;100507.59;5114656;28;20380;-65
2022/08/16 01:43:30;;;;;;;11.23;8.32;;;;;;;20.28;68.19;100507.75;5114411;28;20132;-67
2022/08/16 01:45:58;;;;;;;12.10;8.70;;;;;;;20.29;67.95;100508.63;5114666;28;20021;-67
2022/08/16 01:48:27;;;;;;;12.45;7.88;;;;;;;20.32;68.39;100506.72;5114384;28;20081;-65
2022/08/16 01:50:53;;;;;;;9.43;8.07;;;;;;;20.23;68.44;100510.59;5114357;28;20047;-64
2022/08/16 01:53:19;;;;;;;10.38;8.35;;;;;;;20.28;67.89;100518.50;5114230;28;20509;-66
2022/08/16 01:55:45;;;;;;;12.15;8.18;;;;;;;20.31;68.42;100512.16;5114328;28;20031;-67
2022/08/16 01:58:14;;;;;;;13.52;7.97;;;;;;;20.25;68.17;100515.91;5114267;28;20027;-65
2022/08/16 02:00:39;;;;;;;9.98;7.55;;;;;;;20.16;68.16;100511.72;5114268;28;20028;-66
2022/08/16 02:03:05;;;;;;;10.57;8.82;;;;;;;20.08;69.12;100507.56;5114093;28;20034;-66
2022/08/16 02:05:30;;;;;;;11.07;9.20;;;;;;;20.07;69.37;100509.38;5114021;28;20111;-65
2022/08/16 02:07:56;;;;;;;13.25;9.00;;;;;;;20.07;69.44;100509.38;5095910;28;20058;-66
2022/08/16 02:10:22;;;;;;;14.38;9.05;;;;;;;20.06;69.52;100506.75;5113304;28;20028;-67
2022/08/16 02:12:48;;;;;;;12.07;8.68;;;;;;;20.00;69.23;100519.44;5114256;28;20020;-65
2022/08/16 02:15:14;;;;;;;14.95;8.52;;;;;;;19.92;69.49;100512.59;5114010;28;20038;-64
2022/08/16 02:17:40;;;;;;;10.73;9.07;;;;;;;19.81;70.55;100512.91;5113926;28;20020;-67
2022/08/16 02:20:07;;;;;;;13.52;8.90;;;;;;;19.71;71.08;100511.47;5113759;28;20035;-65
2022/08/16 02:22:32;;;;;;;12.60;9.45;;;;;;;19.60;71.49;100518.94;5113564;28;20028;-66
2022/08/16 02:24:58;;;;;;;13.45;9.52;;;;;;;19.52;72.14;100512.00;5113895;28;20076;-65
2022/08/16 02:27:23;;;;;;;16.48;10.10;;;;;;;19.50;72.26;100513.00;5113736;28;20023;-64
2022/08/16 02:29:48;;;;;;;13.27;9.23;;;;;;;19.48;72.39;100512.16;5113846;28;20054;-66
2022/08/16 02:32:16;;;;;;;15.20;9.77;;;;;;;19.44;72.77;100513.16;5113639;28;20400;-67
2022/08/16 02:34:41;;;;;;;18.70;10.50;;;;;;;19.45;72.74;100509.59;5113943;28;20024;-65
2022/08/16 02:37:06;;;;;;;14.27;9.68;;;;;;;19.44;72.29;100513.16;5113620;28;20028;-66
2022/08/16 02:39:32;;;;;;;12.10;10.10;;;;;;;19.46;72.42;100514.88;5113730;28;20023;-66
2022/08/16 02:41:58;;;;;;;19.85;10.38;;;;;;;19.48;72.55;100512.16;5113504;28;20386;-64
2022/08/16 02:44:23;;;;;;;12.63;9.90;;;;;;;19.55;72.18;100518.22;5113630;28;20035;-67
2022/08/16 02:46:49;;;;;;;11.98;9.93;;;;;;;19.56;72.11;100512.78;5113602;28;20031;-67
2022/08/16 02:49:15;;;;;;;15.52;9.95;;;;;;;19.66;71.65;100508.94;5113654;28;20388;-66
2022/08/16 02:51:41;;;;;;;13.93;10.05;;;;;;;19.72;71.46;100511.41;5095471;28;20511;-65
2022/08/16 02:54:07;;;;;;;12.73;10.27;;;;;;;19.71;71.27;100508.78;5113425;28;20027;-67
2022/08/16 02:56:33;;;;;;;13.35;9.82;;;;;;;19.76;70.96;100515.75;5113628;28;20028;-65
2022/08/16 02:58:59;;;;;;;13.50;9.77;;;;;;;19.80;70.77;100510.31;5113368;28;20507;-66
2022/08/16 03:01:30;;;;;;;14.20;10.10;;;;;;;19.80;70.93;100502.25;5113746;28;20350;-66
2022/08/16 03:03:58;;;;;;;16.30;10.35;;;;;;;19.84;70.67;100504.78;5113774;28;20074;-66
2022/08/16 03:06:23;;;;;;;13.70;10.80;;;;;;;19.79;70.75;100504.06;5113331;28;20024;-65
2022/08/16 03:08:49;;;;;;;14.82;10.00;;;;;;;19.79;71.17;100503.19;5113363;28;20115;-67
2022/08/16 03:11:17;;;;;;;13.70;11.15;;;;;;;19.77;71.55;100508.59;5113267;28;20023;-64
2022/08/16 03:13:48;;;;;;;16.88;11.60;;;;;;;19.64;72.37;100505.41;5113205;28;20465;-66
2022/08/16 03:16:14;;;;;;;14.25;11.60;;;;;;;19.50;72.51;100504.97;5113099;28;20492;-65
2022/08/16 03:18:40;;;;;;;15.38;11.75;;;;;;;19.42;73.29;100499.84;5113612;28;20035;-66
2022/08/16 03:21:07;;;;;;;16.27;11.95;;;;;;;19.32;73.30;100508.22;5114227;28;20085;-64
2022/08/16 03:23:33;;;;;;;16.58;12.32;;;;;;;19.24;73.95;100495.94;5117101;28;20032;-63
2022/08/16 03:25:59;;;;;;;19.15;12.15;;;;;;;19.19;74.06;100497.00;5117492;28;20564;-66
2022/08/16 03:28:24;;;;;;;14.88;13.27;;;;;;;19.05;74.55;100493.84;5117293;28;20027;-66
2022/08/16 03:30:50;;;;;;;19.77;11.77;;;;;;;19.02;74.95;100498.38;5117094;28;20020;-66
2022/08/16 03:33:15;;;;;;;17.88;13.02;;;;;;;18.95;75.25;100499.47;5116902;28;20031;-65
2022/08/16 03:35:42;;;;;;;17.58;12.32;;;;;;;18.97;75.54;100512.81;5117129;28;20065;-65
2022/08/16 03:38:11;;;;;;;17.70;12.90;;;;;;;18.97;75.43;100504.78;5117097;28;20024;-64
2022/08/16 03:40:37;;;;;;;16.55;12.30;;;;;;;19.07;75.46;100511.63;5116882;28;20082;-65
2022/08/16 03:43:05;;;;;;;18.42;13.07;;;;;;;18.96;75.71;100514.59;5116771;28;20493;-65
2022/08/16 03:45:32;;;;;;;19.27;12.45;;;;;;;18.94;75.72;100511.09;5116950;28;20354;-65
2022/08/16 03:47:57;;;;;;;18.00;12.90;;;;;;;18.85;76.03;100516.72;5116912;28;20114;-66
2022/08/16 03:50:23;;;;;;;18.67;13.52;;;;;;;18.83;76.53;100520.38;5116749;28;20058;-66
2022/08/16 03:52:48;;;;;;;20.23;12.40;;;;;;;18.90;76.21;100527.31;5116568;28;20058;-66
2022/08/16 03:55:14;;;;;;;15.43;13.20;;;;;;;18.85;76.54;100530.13;5116752;28;20085;-65
2022/08/16 03:57:39;;;;;;;18.80;13.60;;;;;;;18.84;76.45;100528.34;5116966;28;20115;-65
2022/08/16 04:00:15;;;;;;;17.05;13.77;;;;;;;18.84;76.29;100535.50;5116418;28;20377;-65
2022/08/16 04:02:41;;;;;;;13.90;12.45;;;;;;;18.93;76.08;100537.94;5116665;28;20031;-65
2022/08/16 04:05:07;;;;;;;16.63;13.35;;;;;;;18.90;76.24;100538.91;5116639;28;20027;-66
2022/08/16 04:07:33;;;;;;;15.95;12.55;;;;;;;19.03;75.36;100547.44;5116325;28;20055;-66
2022/08/16 04:09:58;;;;;;;16.85;13.18;;;;;;;18.98;75.53;100546.72;5116485;28;20107;-64
2022/08/16 04:12:24;;;;;;;18.77;14.13;;;;;;;19.01;75.65;100551.97;5116156;28;20146;-65
2022/08/16 04:14:49;;;;;;;19.70;13.13;;;;;;;19.07;75.63;100550.94;5116298;28;20062;-65
2022/08/16 04:17:15;;;;;;;19.08;13.35;;;;;;;19.02;75.68;100553.75;5116411;28;20031;-66
2022/08/16 04:19:43;;;;;;;18.83;13.55;;;;;;;19.00;75.73;100556.44;5116515;28;20104;-66
2022/08/16 04:22:10;;;;;;;15.18;13.57;;;;;;;18.98;76.07;100547.59;5116079;28;20024;-65
2022/08/16 04:24:36;;;;;;;17.33;13.60;;;;;;;18.95;76.18;100555.69;5116211;28;20067;-66
2022/08/16 04:27:02;;;;;;;19.35;14.38;;;;;;;18.82;76.71;100554.28;5116134;28;20480;-66
2022/08/16 04:29:27;;;;;;;20.40;15.02;;;;;;;18.80;77.56;100558.81;5116004;28;20113;-65
2022/08/16 04:31:54;;;;;;;23.80;16.05;;;;;;;18.72;77.84;100559.03;5116309;28;20024;-67
2022/08/16 04:34:20;;;;;;;19.85;15.93;;;;;;;18.69;78.07;100553.75;5115070;28;20035;-64
2022/08/16 04:36:46;;;;;;;21.85;15.60;;;;;;;18.63;77.91;100542.28;5098025;28;20035;-66
2022/08/16 04:39:11;;;;;;;17.70;14.55;;;;;;;18.79;77.22;100550.81;5115830;28;20023;-65
2022/08/16 04:41:37;;;;;;;19.90;15.10;;;;;;;18.77;76.92;100549.06;5115699;28;20051;-65
2022/08/16 04:44:02;;;;;;;20.10;14.73;;;;;;;18.78;77.34;100547.25;5115914;28;20473;-66
2022/08/16 04:46:28;;;;;;;22.65;14.95;;;;;;;18.72;76.81;100550.13;5115940;28;20028;-65
2022/08/16 04:48:53;;;;;;;23.45;15.77;;;;;;;18.69;77.23;100550.16;5115983;28;20024;-66
2022/08/16 04:51:19;;;;;;;16.88;14.75;;;;;;;18.65;77.02;100554.72;5115511;28;20031;-65
2022/08/16 04:53:44;;;;;;;18.10;13.82;;;;;;;18.75;77.28;100553.56;5115766;28;20039;-63
2022/08/16 04:56:10;;;;;;;23.50;14.65;;;;;;;18.71;77.19;100556.38;5115456;28;20069;-63
2022/08/16 04:58:35;;;;;;;17.35;13.65;;;;;;;18.72;77.47;100556.34;5115782;28;20084;-67
2022/08/16 05:01:01;;;;;;;18.80;14.45;;;;;;;18.74;77.24;100567.00;5115450;28;20107;-63
2022/08/16 05:03:27;;;;;;;19.40;11.15;;;;;;;18.92;76.32;100562.94;5115548;28;20109;-66
2022/08/16 05:05:52;;;;;;;18.95;14.35;;;;;;;18.96;76.55;100553.91;5115356;28;20020;-66
2022/08/16 05:08:18;;;;;;;18.38;14.07;;;;;;;19.00;76.86;100555.56;5097031;28;20030;-64
2022/08/16 05:10:43;;;;;;;18.77;13.80;;;;;;;19.02;76.74;100565.31;5115106;28;20035;-66
2022/08/16 05:13:09;;;;;;;19.75;14.95;;;;;;;19.05;76.92;100558.09;5115087;28;20083;-66
2022/08/16 05:15:35;;;;;;;19.08;14.75;;;;;;;19.02;77.07;100565.31;5115208;28;20077;-64
2022/08/16 05:18:02;;;;;;;17.88;14.20;;;;;;;19.09;76.51;100567.81;5115083;28;20035;-67
2022/08/16 05:20:28;;;;;;;18.05;14.18;;;;;;;19.23;76.48;100565.63;5115412;28;20477;-65
2022/08/16 05:22:53;;;;;;;20.17;14.15;;;;;;;19.38;75.78;100577.69;5114727;28;20032;-64
2022/08/16 05:25:19;;;;;;;20.67;14.27;;;;;;;19.45;75.51;100577.47;5114831;28;20062;-65
2022/08/16 05:27:45;;;;;;;18.55;13.48;;;;;;;19.51;75.71;100574.59;5114939;28;20027;-65
2022/08/16 05:30:13;;;;;;;20.23;14.50;;;;;;;19.60;74.93;100581.47;5114862;28;20078;-64
2022/08/16 05:32:40;;;;;;;23.23;15.30;;;;;;;19.64;75.02;100584.97;5114908;28;20030;-65
2022/08/16 05:35:08;;;;;;;18.48;14.82;;;;;;;19.79;74.76;100587.19;5114668;28;20103;-67
2022/08/16 05:37:34;;;;;;;21.23;15.25;;;;;;;19.99;74.41;100586.53;5114902;28;20386;-65
2022/08/16 05:40:00;;;;;;;22.85;16.30;;;;;;;20.14;74.19;100585.16;5114489;28;20028;-66
2022/08/16 05:42:26;;;;;;;23.63;16.50;;;;;;;20.36;73.26;100591.56;5114429;28;20056;-65
2022/08/16 05:44:51;;;;;;;24.50;16.65;;;;;;;20.49;72.65;100584.00;5114682;28;20421;-65
2022/08/16 05:47:16;;;;;;;17.85;15.90;;;;;;;20.67;72.00;100594.09;5114496;28;20020;-66
2022/08/16 05:49:42;;;;;;;21.55;15.50;;;;;;;20.74;71.48;100590.28;5114589;28;20553;-64
2022/08/16 05:52:09;;;;;;;22.10;15.98;;;;;;;20.87;71.22;100596.09;5096016;28;20062;-66
2022/08/16 05:54:34;;;;;;;21.83;15.55;;;;;;;20.95;70.56;100595.81;5114380;28;20087;-66
2022/08/16 05:56:59;;;;;;;20.05;16.02;;;;;;;21.05;70.28;100601.72;5114279;28;20028;-67
2022/08/16 05:59:25;;;;;;;22.90;15.77;;;;;;;21.12;69.92;100601.47;5114394;28;20034;-65
2022/08/16 06:01:51;;;;;;;25.70;15.85;;;;;;;21.14;68.68;100602.28;5114276;28;20036;-66
2022/08/16 06:04:17;;;;;;;23.80;16.00;;;;;;;21.25;69.01;100600.06;5114160;28;20028;-64
2022/08/16 06:06:44;;;;;;;18.65;15.43;;;;;;;21.41;68.44;100605.78;5114378;28;20073;-63
2022/08/16 06:09:10;;;;;;;18.17;15.07;;;;;;;21.48;68.03;100609.09;5113933;28;20182;-66
2022/08/16 06:11:36;;;;;;;23.42;16.50;;;;;;;21.54;67.56;100614.28;5114141;28;20389;-67
2022/08/16 06:14:02;;;;;;;18.52;15.40;;;;;;;21.62;67.76;100608.56;5113976;28;20532;-65
2022/08/16 06:16:27;;;;;;;19.58;15.48;;;;;;;21.73;66.76;100609.91;5114034;28;20024;-66
2022/08/16 06:18:53;;;;;;;19.92;16.02;;;;;;;21.81;67.13;100609.63;5113799;28;20035;-66
2022/08/16 06:21:18;;;;;;;23.90;14.93;;;;;;;21.74;66.07;100616.16;5113899;28;20073;-66
2022/08/16 06:23:44;;;;;;;21.73;15.43;;;;;;;21.77;66.33;100621.44;5113517;28;20030;-66
2022/08/16 06:26:10;;;;;;;17.02;14.00;;;;;;;21.86;65.12;100618.38;5113848;28;20106;-65
2022/08/16 06:28:35;;;;;;;21.58;14.27;;;;;;;21.88;64.98;100623.69;5113869;28;20473;-64
2022/08/16 06:31:01;;;;;;;21.65;14.25;;;;;;;21.90;64.98;100625.38;5113718;28;20020;-65
2022/08/16 06:33:26;;;;;;;18.80;13.98;;;;;;;22.00;64.50;100625.88;5113799;28;20024;-65
2022/08/16 06:35:53;;;;;;;19.52;14.00;;;;;;;22.16;64.06;100632.44;5113538;28;20034;-63
2022/08/16 06:38:18;;;;;;;19.08;14.13;;;;;;;22.29;63.04;100630.13;5113888;28;20028;-65
2022/08/16 06:40:44;;;;;;;17.17;13.95;;;;;;;22.54;62.27;100621.03;5113555;28;20032;-66
2022/08/16 06:43:09;;;;;;;20.15;13.65;;;;;;;22.68;62.13;100626.69;5113328;28;20059;-64
2022/08/16 06:45:36;;;;;;;18.65;13.70;;;;;;;22.62;61.43;100624.28;5113680;28;20576;-66
2022/08/16 06:48:03;;;;;;;18.10;13.48;;;;;;;22.81;60.68;100627.91;5095126;28;20423;-65
2022/08/16 06:50:29;;;;;;;17.88;13.10;;;;;;;22.94;60.95;100621.09;5113576;28;20031;-67
2022/08/16 06:52:54;;;;;;;19.63;13.80;;;;;;;23.03;60.28;100624.31;5094779;28;20031;-66
2022/08/16 06:55:19;;;;;;;18.17;12.77;;;;;;;23.26;58.99;100626.00;5113190;28;20063;-66
2022/08/16 06:57:45;;;;;;;16.15;12.75;;;;;;;23.44;58.03;100625.16;5113367;28;20385;-65
2022/08/16 07:00:12;;;;;;;16.40;13.07;;;;;;;23.38;57.84;100633.50;5113401;28;20026;-66
2022/08/16 07:02:43;;;;;;;17.27;13.20;;;;;;;23.44;58.13;100630.56;5113320;28;20035;-65
2022/08/16 07:05:10;;;;;;;16.85;13.38;;;;;;;23.53;57.98;100632.81;5113409;28;20381;-66
2022/08/16 07:07:36;;;;;;;15.95;12.98;;;;;;;23.65;57.68;100634.09;5113325;28;20027;-66
2022/08/16 07:10:04;;;;;;;17.08;13.02;;;;;;;23.75;57.50;100630.00;5113174;28;20487;-65
2022/08/16 07:12:29;;;;;;;17.63;13.20;;;;;;;24.04;56.43;100631.31;5113290;28;20026;-66
2022/08/16 07:14:56;;;;;;;16.48;12.77;;;;;;;24.18;55.66;100639.63;5113173;28;20019;-64
2022/08/16 07:17:22;;;;;;;20.38;13.43;;;;;;;24.30;55.88;100640.84;5113591;28;20055;-68
2022/08/16 07:19:48;;;;;;;18.63;13.13;;;;;;;24.35;55.35;100646.88;5113286;28;20390;-67
2022/08/16 07:22:16;;;;;;;18.95;13.57;;;;;;;24.27;55.30;100646.38;5112985;28;20027;-64
2022/08/16 07:24:43;;;;;;;17.52;12.60;;;;;;;24.50;54.53;100648.00;5113107;28;20031;-65
2022/08/16 07:27:08;;;;;;;18.58;12.70;;;;;;;24.64;54.35;100648.16;5113228;28;20028;-67
2022/08/16 07:29:34;;;;;;;16.60;12.25;;;;;;;24.83;53.91;100647.22;5113241;28;20035;-66
2022/08/16 07:31:59;;;;;;;17.60;12.48;;;;;;;24.98;53.50;100652.72;5113116;28;20035;-66
2022/08/16 07:34:25;;;;;;;15.77;12.82;;;;;;;25.07;53.71;100645.94;5113334;28;20106;-65
2022/08/16 07:36:50;;;;;;;16.55;12.18;;;;;;;25.29;52.81;100651.13;5094844;28;20550;-64
2022/08/16 07:39:16;;;;;;;18.85;11.98;;;;;;;25.60;52.21;100652.16;5113381;28;20118;-66
2022/08/16 07:41:43;;;;;;;15.68;12.13;;;;;;;25.70;52.26;100666.94;5112755;28;20040;-65
2022/08/16 07:44:09;;;;;;;16.30;12.23;;;;;;;25.66;51.70;100655.41;5113177;28;20032;-65
2022/08/16 07:46:34;;;;;;;16.60;11.98;;;;;;;25.62;51.82;100661.09;5113010;28;20027;-64
2022/08/16 07:49:00;;;;;;;18.23;11.52;;;;;;;25.75;52.12;100658.56;5112963;28;20100;-64
2022/08/16 07:51:26;;;;;;;16.08;11.05;;;;;;;25.98;50.96;100669.88;5112961;28;20098;-64
2022/08/16 07:53:51;;;;;;;14.70;12.50;;;;;;;26.13;50.71;100665.44;5112869;28;20131;-67
2022/08/16 07:56:17;;;;;;;19.05;11.55;;;;;;;26.17;50.79;100672.44;5113044;28;20031;-66
2022/08/16 07:58:44;;;;;;;14.68;11.20;;;;;;;26.09;50.47;100666.59;5112860;28;20020;-65
2022/08/16 08:01:09;;;;;;;22.85;11.65;;;;;;;26.15;50.71;100671.63;5112973;28;20077;-64
2022/08/16 08:03:35;;;;;;;15.43;10.60;;;;;;;26.48;49.85;100664.41;5112774;28;20031;-66
2022/08/16 08:06:02;;;;;;;16.45;11.10;;;;;;;26.38;49.34;100661.31;5112693;28;20487;-66
2022/08/16 08:08:28;;;;;;;18.13;10.38;;;;;;;26.58;49.62;100663.78;5114601;28;20457;-65
2022/08/16 08:10:53;;;;;;;22.52;10.57;;;;;;;26.70;49.20;100664.91;5116502;28;20024;-64
2022/08/16 08:13:19;;;;;;;13.82;10.10;;;;;;;26.85;49.03;100674.84;5116318;28;20180;-66
2022/08/16 08:15:46;;;;;;;14.10;10.13;;;;;;;26.96;48.07;100680.47;5116264;28;20052;-67
2022/08/16 08:18:12;;;;;;;16.30;9.65;;;;;;;27.10;48.25;100678.78;5116428;28;20443;-65
2022/08/16 08:20:43;;;;;;;15.60;9.98;;;;;;;26.96;47.71;100682.31;5116102;28;20051;-67
2022/08/16 08:23:11;;;;;;;13.43;8.32;;;;;;;27.06;46.28;100679.91;5116377;28;20032;-66
2022/08/16 08:25:38;;;;;;;14.30;8.60;;;;;;;27.21;45.70;100673.59;5116216;28;20042;-65
2022/08/16 08:28:05;;;;;;;11.60;8.25;;;;;;;27.45;45.22;100677.50;5116259;28;20100;-66
2022/08/16 08:30:31;;;;;;;10.57;7.93;;;;;;;27.82;45.27;100677.06;5116105;28;20038;-65
2022/08/16 08:32:56;;;;;;;12.05;8.48;;;;;;;28.14;44.17;100670.44;5116059;28;20023;-66
2022/08/16 08:35:22;;;;;;;14.88;8.80;;;;;;;28.24;44.02;100677.97;5115925;28;20388;-67
2022/08/16 08:37:47;;;;;;;13.63;8.30;;;;;;;28.27;42.70;100677.78;5115812;28;20096;-65
2022/08/16 08:40:13;;;;;;;13.05;8.90;;;;;;;28.09;42.84;100674.38;5115961;28;20023;-68
2022/08/16 08:42:42;;;;;;;12.82;7.78;;;;;;;27.89;42.70;100681.13;5097313;28;20052;-66
2022/08/16 08:45:09;;;;;;;14.35;7.90;;;;;;;27.85;43.55;100677.75;5115687;28;20051;-65
2022/08/16 08:47:35;;;;;;;15.65;8.70;;;;;;;28.05;42.60;100681.91;5115663;28;20031;-67
2022/08/16 08:50:02;;;;;;;12.48;7.93;;;;;;;28.19;42.68;100679.13;5115641;28;20076;-65
2022/08/16 08:52:28;;;;;;;11.25;8.20;;;;;;;28.06;42.37;100682.75;5115596;28;20028;-66
2022/08/16 08:54:53;;;;;;;14.35;8.18;;;;;;;28.38;41.58;100681.53;5115485;28;20423;-66
2022/08/16 08:57:20;;;;;;;14.90;7.32;;;;;;;28.65;41.46;100681.56;5115636;28;20477;-66
2022/08/16 08:59:45;;;;;;;11.55;8.05;;;;;;;28.99;40.52;100686.56;5115423;28;20144;-66
2022/08/16 09:02:14;;;;;;;13.30;8.63;;;;;;;28.61;40.64;100690.03;5115465;28;20103;-64
2022/08/16 09:04:40;;;;;;;13.55;9.00;;;;;;;28.31;40.81;100692.88;5115386;28;20038;-66
2022/08/16 09:07:05;;;;;;;14.77;7.90;;;;;;;28.54;41.58;100692.28;5115310;28;20393;-67
2022/08/16 09:09:31;;;;;;;12.90;7.72;;;;;;;28.86;40.30;100692.81;5115523;28;20036;-66
2022/08/16 09:11:57;;;;;;;11.05;7.90;;;;;;;29.12;40.28;100690.19;5115394;28;20126;-66
2022/08/16 09:14:23;;;;;;;11.88;7.40;;;;;;;29.34;39.60;100684.13;5115216;28;20031;-66
2022/08/16 09:16:50;;;;;;;11.85;7.50;;;;;;;29.39;38.88;100701.88;5115008;28;20015;-66
2022/08/16 09:19:16;;;;;;;16.77;7.80;;;;;;;29.24;39.50;100702.06;5114694;28;20023;-67
2022/08/16 09:21:42;;;;;;;14.02;7.38;;;;;;;29.01;38.93;100703.66;5114854;28;20122;-68
2022/08/16 09:24:08;;;;;;;14.10;7.55;;;;;;;29.00;39.38;100694.63;5114996;28;20485;-65
2022/08/16 09:26:34;;;;;;;13.05;7.20;;;;;;;29.06;38.97;100696.06;5115033;28;20432;-65
2022/08/16 09:28:59;;;;;;;11.07;6.63;;;;;;;29.33;38.34;100699.56;5114840;28;20024;-65
2022/08/16 09:31:25;;;;;;;8.75;6.30;;;;;;;29.47;38.38;100695.91;5114867;28;20028;-65
2022/08/16 09:33:51;;;;;;;11.50;6.35;;;;;;;29.69;37.24;100701.59;5114637;28;20447;-67
2022/08/16 09:36:18;;;;;;;10.27;6.55;;;;;;;29.94;35.95;100700.69;5114900;28;20524;-67
2022/08/16 09:38:44;;;;;;;8.70;6.28;;;;;;;29.83;36.60;100702.44;5114993;28;20032;-67
2022/08/16 09:41:10;;;;;;;12.38;6.38;;;;;;;29.94;37.21;100702.56;5114548;28;20501;-65
2022/08/16 09:43:37;;;;;;;13.30;6.10;;;;;;;30.29;36.38;100710.03;5114727;28;20107;-66
2022/08/16 09:46:06;;;;;;;10.90;6.55;;;;;;;30.24;35.31;100709.50;5114464;28;20099;-66
2022/08/16 09:48:33;;;;;;;13.60;5.97;;;;;;;30.35;34.65;100699.53;5114785;28;20026;-67
2022/08/16 09:50:59;;;;;;;9.07;5.75;;;;;;;30.30;34.78;100714.50;5114476;28;20020;-67
2022/08/16 09:53:25;;;;;;;7.85;5.30;;;;;;;30.22;35.35;100703.28;5114321;28;20027;-66
2022/08/16 09:55:54;;;;;;;14.73;6.60;;;;;;;30.72;34.15;100694.06;5114335;28;20027;-65
2022/08/16 09:58:22;;;;;;;9.35;5.10;;;;;;;30.78;34.27;100699.03;5114403;28;20449;-66
2022/08/16 10:00:49;;;;;;;7.50;5.38;;;;;;;31.15;33.64;100696.22;5114047;28;20027;-66
2022/08/16 10:03:15;;;;;;;10.15;5.20;;;;;;;31.44;32.92;100702.16;5114176;28;20055;-67
2022/08/16 10:05:41;;;;;;;6.72;4.85;;;;;;;31.87;31.45;100696.91;5114265;28;20031;-65
2022/08/16 10:08:06;;;;;;;10.15;4.85;;;;;;;31.89;31.18;100703.09;5114232;28;20031;-67
2022/08/16 10:10:33;;;;;;;6.60;4.72;;;;;;;32.24;29.99;100696.59;5114206;28;20097;-66
2022/08/16 10:13:11;;;;;;;8.48;4.55;;;;;;;32.25;30.26;100701.09;5113955;28;20062;-64
2022/08/16 10:15:39;;;;;;;8.30;5.40;;;;;;;32.15;30.24;100700.97;5114394;28;20042;-65
2022/08/16 10:18:07;;;;;;;8.73;4.72;;;;;;;32.38;30.20;100690.91;5114019;28;20030;-65
2022/08/16 10:20:36;;;;;;;6.57;4.53;;;;;;;32.12;30.03;100689.41;5113874;28;20020;-66
2022/08/16 10:23:08;;;;;;;8.70;4.43;;;;;;;31.82;30.43;100693.63;5113785;28;20047;-66
2022/08/16 10:25:38;;;;;;;12.85;5.05;;;;;;;31.86;30.60;100694.25;5113853;28;20032;-66
2022/08/16 10:28:04;;;;;;;7.90;4.80;;;;;;;31.99;30.51;100697.78;5113883;28;20027;-65
2022/08/16 10:30:30;;;;;;;6.30;4.05;;;;;;;32.14;29.90;100698.38;5113054;28;20024;-66
2022/08/16 10:32:56;;;;;;;7.90;4.95;;;;;;;32.39;29.22;100703.59;5095569;28;20023;-66
2022/08/16 10:35:22;;;;;;;12.43;4.03;;;;;;;32.64;28.41;100698.78;5113666;28;20427;-65
2022/08/16 10:37:47;;;;;;;8.30;4.05;;;;;;;32.59;28.87;100701.03;5113673;28;20489;-65
2022/08/16 10:40:13;;;;;;;7.80;4.07;;;;;;;32.57;28.55;100698.44;5113520;28;20020;-65
2022/08/16 10:42:39;;;;;;;7.85;3.80;;;;;;;32.89;28.45;100692.09;5113441;28;20405;-66
2022/08/16 10:45:05;;;;;;;7.93;4.15;;;;;;;33.05;28.12;100699.88;5113889;28;20026;-66
2022/08/16 10:47:30;;;;;;;8.48;4.10;;;;;;;33.08;27.66;100696.91;5113435;28;20108;-64
2022/08/16 10:49:58;;;;;;;13.38;4.10;;;;;;;33.29;27.91;100692.28;5113667;28;20405;-66
2022/08/16 10:52:24;;;;;;;8.73;4.07;;;;;;;33.43;27.55;100707.53;5113277;28;20077;-66
2022/08/16 10:54:49;;;;;;;12.52;4.30;;;;;;;33.49;26.65;100704.28;5095387;28;20023;-67
2022/08/16 10:57:15;;;;;;;8.90;4.15;;;;;;;33.43;27.69;100704.78;5113447;28;20026;-66
2022/08/16 10:59:41;;;;;;;9.63;4.22;;;;;;;33.27;27.79;100705.25;5113357;28;20039;-65
2022/08/16 11:02:10;;;;;;;10.55;4.07;;;;;;;33.40;27.94;100705.94;5113497;28;20039;-65
2022/08/16 11:04:36;;;;;;;10.27;4.03;;;;;;;33.70;26.90;100701.50;5113376;28;20097;-66
2022/08/16 11:07:03;;;;;;;6.75;4.28;;;;;;;33.60;26.82;100706.06;5113431;28;20477;-65
2022/08/16 11:09:29;;;;;;;6.68;3.97;;;;;;;33.55;26.60;100709.22;5113181;28;20079;-66
2022/08/16 11:11:55;;;;;;;11.45;4.22;;;;;;;33.97;26.94;100705.56;5095333;28;20035;-65